createdAt,value
2023-02-11T00:05:08.128Z,102706.84
2023-02-11T00:15:14.235Z,102705.25
2023-02-11T00:25:17.453Z,102690.69
2023-02-11T00:35:21.553Z,102684.53
2023-02-11T00:45:24.646Z,102663.28
2023-02-11T00:55:29.100Z,102677.56
2023-02-11T01:05:32.463Z,102660.44
2023-02-11T01:15:37.290Z,102649.00
2023-02-11T01:25:40.425Z,102664.81
2023-02-11T01:35:45.660Z,102662.75
2023-02-11T01:46:01.631Z,102675.75
2023-02-11T01:56:25.843Z,102667.88
2023-02-11T02:06:34.547Z,102684.34
2023-02-11T02:16:39.383Z,102690.13
2023-02-11T02:27:09.594Z,102679.56
2023-02-11T02:37:18.452Z,102669.88
2023-02-11T02:47:21.419Z,102659.34
2023-02-11T02:57:33.929Z,102651.78
2023-02-11T03:07:43.965Z,102660.59
2023-02-11T03:17:51.883Z,102618.78
2023-02-11T03:28:02.217Z,102620.69
2023-02-11T03:38:10.586Z,102640.88
2023-02-11T03:48:17.148Z,102639.38
2023-02-11T03:58:22.012Z,102626.00
2023-02-11T04:08:25.206Z,102619.16
2023-02-11T04:18:29.468Z,102619.03
2023-02-11T04:28:32.560Z,102622.19
2023-02-11T04:38:36.913Z,102610.81
2023-02-11T04:48:39.937Z,102614.94
2023-02-11T04:58:44.352Z,102592.47
2023-02-11T05:08:47.580Z,102596.19
2023-02-11T05:18:52.699Z,102579.34
2023-02-11T05:28:55.917Z,102589.44
2023-02-11T05:39:00.730Z,102596.25
2023-02-11T05:49:03.932Z,102583.41
2023-02-11T05:59:08.300Z,102580.28
2023-02-11T06:09:14.050Z,102567.75
2023-02-11T06:19:18.588Z,102560.38
2023-02-11T06:29:21.998Z,102571.56
2023-02-11T06:39:26.556Z,102555.53
2023-02-11T06:49:29.545Z,102582.19
2023-02-11T06:59:34.046Z,102601.72
2023-02-11T07:09:37.144Z,102598.44
2023-02-11T07:19:42.933Z,102599.69
2023-02-11T07:29:46.997Z,102614.22
2023-02-11T07:39:51.326Z,102615.94
2023-02-11T07:49:56.576Z,102622.97
2023-02-11T08:00:01.120Z,102632.44
2023-02-11T08:10:13.885Z,102649.75
2023-02-11T08:20:18.540Z,102645.59
2023-02-11T08:30:22.137Z,102656.81
2023-02-11T08:40:26.520Z,102659.59
2023-02-11T08:50:30.187Z,102653.69
2023-02-11T09:00:34.818Z,102658.72
2023-02-11T09:10:38.605Z,102664.03
2023-02-11T09:20:42.749Z,102670.75
2023-02-11T09:30:45.918Z,102704.25
2023-02-11T09:40:51.597Z,102706.84
2023-02-11T09:50:59.367Z,102704.00
2023-02-11T10:01:09.731Z,102713.50
2023-02-11T10:11:31.169Z,102709.41
2023-02-11T10:21:46.734Z,102721.38
2023-02-11T10:31:52.643Z,102727.22
2023-02-11T10:42:00.604Z,102719.41
2023-02-11T10:52:19.739Z,102729.97
2023-02-11T11:02:32.023Z,102730.06
2023-02-11T11:12:42.165Z,102719.91
2023-02-11T11:22:47.541Z,102725.03
2023-02-11T11:32:51.140Z,102716.50
2023-02-11T11:43:22.611Z,102714.03
2023-02-11T11:53:34.574Z,102698.78
2023-02-11T12:04:21.536Z,102678.13
2023-02-11T12:14:36.192Z,102693.50
2023-02-11T12:25:04.306Z,102700.59
2023-02-11T12:35:31.667Z,102705.13
2023-02-11T12:45:48.165Z,102709.09
2023-02-11T12:55:58.937Z,102720.72
2023-02-11T13:06:08.102Z,102696.09
2023-02-11T13:16:22.031Z,102703.47
2023-02-11T13:26:32.194Z,102695.13
2023-02-11T13:36:36.903Z,102693.34
2023-02-11T13:46:54.211Z,102688.38
2023-02-11T13:57:35.898Z,102694.44
2023-02-11T14:07:58.374Z,102684.97
2023-02-11T14:18:04.520Z,102673.06
2023-02-11T14:28:16.545Z,102689.19
2023-02-11T14:38:27.796Z,102695.34
2023-02-11T14:48:32.978Z,102696.41
2023-02-11T14:58:37.836Z,102694.63
2023-02-11T15:08:46.501Z,102689.78
2023-02-11T15:18:53.061Z,102684.44
2023-02-11T15:28:56.233Z,102707.88
2023-02-11T15:39:20.815Z,102702.78
2023-02-11T15:49:24.989Z,102716.50
2023-02-11T15:59:32.788Z,102710.50
2023-02-11T16:09:36.699Z,102713.06
2023-02-11T16:19:47.686Z,102724.22
2023-02-11T16:29:51.395Z,102730.97
2023-02-11T16:39:56.244Z,102755.16
2023-02-11T16:50:00.214Z,102765.19
2023-02-11T17:00:06.487Z,102774.50
2023-02-11T17:10:15.206Z,102782.88
2023-02-11T17:20:21.215Z,102791.63
2023-02-11T17:30:25.010Z,102811.91
2023-02-11T17:40:29.239Z,102827.38
2023-02-11T17:50:32.304Z,102825.69
2023-02-11T18:00:36.510Z,102836.00
2023-02-11T18:10:42.649Z,102839.44
2023-02-11T18:20:56.395Z,102841.94
2023-02-11T18:30:59.898Z,102845.44
2023-02-11T18:41:05.284Z,102846.19
2023-02-11T18:51:14.615Z,102839.28
2023-02-11T19:01:22.914Z,102845.25
2023-02-11T19:11:47.589Z,102843.50
2023-02-11T19:21:52.179Z,102843.34
2023-02-11T19:31:56.615Z,102848.44
2023-02-11T19:42:00.853Z,102857.41
2023-02-11T19:52:03.794Z,102865.19
2023-02-11T20:02:08.146Z,102877.00
2023-02-11T20:12:12.059Z,102873.59
2023-02-11T20:22:18.036Z,102880.34
2023-02-11T20:32:21.724Z,102880.59
2023-02-11T20:42:26.457Z,102890.66
2023-02-11T20:52:29.977Z,102907.59
2023-02-11T21:02:34.566Z,102905.88
2023-02-11T21:12:38.403Z,102917.31
2023-02-11T21:22:43.072Z,102910.88
2023-02-11T21:32:46.181Z,102917.22
2023-02-11T21:42:50.431Z,102925.72
2023-02-11T21:52:53.409Z,102913.72
2023-02-11T22:02:58.064Z,102918.03
2023-02-11T22:13:02.081Z,102916.13
2023-02-11T22:23:06.678Z,102923.53
2023-02-11T22:33:09.922Z,102939.78
2023-02-11T22:43:14.233Z,102944.41
2023-02-11T22:53:17.929Z,102942.66
2023-02-11T23:03:22.323Z,102952.78
2023-02-11T23:13:25.479Z,102960.44
2023-02-11T23:23:30.131Z,102966.28
2023-02-11T23:33:33.303Z,102978.25
2023-02-11T23:43:37.901Z,102968.25
2023-02-11T23:53:41.460Z,102967.38
